createdAt,value
2017-02-26T00:00:01.088Z,72.68
2017-02-26T00:00:41.489Z,72.36
2017-02-26T00:01:21.924Z,72.45
2017-02-26T00:02:02.272Z,72.36
2017-02-26T00:02:42.679Z,72.45
2017-02-26T00:03:23.191Z,72.45
2017-02-26T00:04:03.642Z,72.55
2017-02-26T00:04:44.055Z,72.36
2017-02-26T00:05:24.422Z,72.27
2017-02-26T00:06:04.897Z,72.27
2017-02-26T00:06:45.675Z,72.45
2017-02-26T00:07:26.056Z,72.27
2017-02-26T00:08:06.431Z,72.36
2017-02-26T00:08:46.859Z,72.36
2017-02-26T00:09:27.376Z,72.3
2017-02-26T00:10:07.785Z,72.36
2017-02-26T00:10:48.952Z,72.27
2017-02-26T00:11:29.930Z,72.45
2017-02-26T00:12:10.362Z,72.45
2017-02-26T00:12:50.820Z,72.4
2017-02-26T00:13:31.228Z,72.27
2017-02-26T00:14:11.690Z,72.27
2017-02-26T00:14:52.177Z,72.84
2017-02-26T00:15:32.599Z,72.84
2017-02-26T00:16:12.941Z,72.27
2017-02-26T00:16:53.382Z,72.84
2017-02-26T00:17:33.825Z,72.84
2017-02-26T00:18:14.326Z,72.93
2017-02-26T00:18:54.971Z,72.64
2017-02-26T00:19:35.258Z,72.93
2017-02-26T00:20:16.097Z,72.74
2017-02-26T00:20:56.520Z,72.93
2017-02-26T00:21:36.909Z,73.22
2017-02-26T00:22:17.264Z,73.22
2017-02-26T00:22:57.708Z,73.31
2017-02-26T00:23:38.125Z,73.12
2017-02-26T00:24:18.515Z,72.93
2017-02-26T00:24:58.950Z,73.03
2017-02-26T00:25:39.357Z,73.69
2017-02-26T00:26:19.765Z,73.79
2017-02-26T00:27:00.185Z,73.69
2017-02-26T00:27:40.591Z,73.6
2017-02-26T00:28:20.992Z,73.5
2017-02-26T00:29:01.417Z,73.31
2017-02-26T00:29:41.790Z,73.31
2017-02-26T00:30:22.252Z,73.41
2017-02-26T00:31:02.717Z,73.5
2017-02-26T00:31:43.180Z,73.31
2017-02-26T00:32:23.586Z,73.5
2017-02-26T00:33:03.940Z,73.41
2017-02-26T00:33:44.367Z,73.5
2017-02-26T00:34:24.784Z,73.41
2017-02-26T00:35:05.163Z,73.5
2017-02-26T00:35:45.776Z,73.5
2017-02-26T00:36:26.187Z,74.16
2017-02-26T00:37:06.583Z,74.07
2017-02-26T00:37:46.973Z,73.88
2017-02-26T00:38:27.454Z,74.07
2017-02-26T00:39:07.838Z,74.07
2017-02-26T00:39:48.295Z,74.16
2017-02-26T00:40:28.655Z,73.88
2017-02-26T00:41:09.054Z,74.07
2017-02-26T00:41:49.461Z,73.88
2017-02-26T00:42:29.853Z,73.6
2017-02-26T00:43:10.572Z,74.16
2017-02-26T00:43:50.979Z,73.69
2017-02-26T00:44:31.469Z,73.88
2017-02-26T00:45:11.809Z,74.26
2017-02-26T00:45:52.525Z,73.97
2017-02-26T00:46:32.911Z,73.88
2017-02-26T00:47:13.350Z,74.16
2017-02-26T00:47:53.807Z,74.35
2017-02-26T00:48:34.133Z,74.16
2017-02-26T00:49:14.511Z,74.16
2017-02-26T00:49:54.905Z,74.16
2017-02-26T00:50:35.315Z,73.88
2017-02-26T00:51:15.749Z,73.88
2017-02-26T00:51:56.153Z,74.07
2017-02-26T00:52:36.610Z,74.07
2017-02-26T00:53:16.994Z,74.07
2017-02-26T00:53:57.454Z,74.16
2017-02-26T00:54:37.858Z,74.26
2017-02-26T00:55:18.205Z,74.54
2017-02-26T00:55:58.633Z,74.35
2017-02-26T00:56:39.035Z,74.16
2017-02-26T00:57:19.425Z,74.07
2017-02-26T00:57:59.829Z,74.35
2017-02-26T00:58:40.265Z,74.54
2017-02-26T00:59:20.673Z,74.73
2017-02-26T01:00:01.114Z,74.73
2017-02-26T01:00:41.457Z,74.26
2017-02-26T01:01:21.896Z,74.26
2017-02-26T01:02:02.275Z,74.64
2017-02-26T01:02:42.706Z,74.16
2017-02-26T01:03:23.211Z,74.26
2017-02-26T01:04:03.629Z,74.16
2017-02-26T01:04:44.082Z,74.16
2017-02-26T01:05:24.462Z,74.26
2017-02-26T01:06:04.848Z,74.07
2017-02-26T01:06:45.245Z,74.35
2017-02-26T01:07:25.634Z,74.16
2017-02-26T01:08:06.092Z,74.16
2017-02-26T01:08:46.452Z,74.54
2017-02-26T01:09:26.855Z,74.83
2017-02-26T01:10:07.311Z,75.02
2017-02-26T01:10:47.730Z,74.92
2017-02-26T01:11:28.168Z,74.92
2017-02-26T01:12:08.544Z,74.64
2017-02-26T01:12:48.922Z,74.83
2017-02-26T01:13:29.336Z,74.54
2017-02-26T01:14:09.721Z,74.83
2017-02-26T01:14:50.161Z,75.21
2017-02-26T01:15:30.534Z,75.4
2017-02-26T01:16:10.982Z,75.11
2017-02-26T01:16:51.338Z,75.11
2017-02-26T01:17:31.754Z,75.21
2017-02-26T01:18:12.215Z,75.21
2017-02-26T01:18:52.626Z,74.92
2017-02-26T01:19:33.035Z,75.21
2017-02-26T01:20:14.187Z,75.31
2017-02-26T01:20:54.624Z,75.02
2017-02-26T01:21:34.986Z,75.02
2017-02-26T01:22:15.379Z,74.92
2017-02-26T01:22:55.815Z,75.11
2017-02-26T01:23:36.170Z,75.49
2017-02-26T01:24:16.645Z,75.68
2017-02-26T01:24:57.012Z,75.59
2017-02-26T01:25:37.479Z,75.68
2017-02-26T01:26:17.876Z,75.68
2017-02-26T01:26:58.269Z,75.31
2017-02-26T01:27:38.669Z,75.49
2017-02-26T01:28:19.067Z,75.68
2017-02-26T01:28:59.543Z,75.87
2017-02-26T01:29:39.894Z,75.59
2017-02-26T01:30:20.288Z,75.59
2017-02-26T01:31:00.711Z,75.4
2017-02-26T01:31:41.109Z,75.96
2017-02-26T01:32:21.547Z,75.68
2017-02-26T01:33:01.975Z,75.78
2017-02-26T01:33:42.359Z,75.78
2017-02-26T01:34:22.785Z,75.78
2017-02-26T01:35:03.152Z,75.78
2017-02-26T01:35:43.778Z,75.78
2017-02-26T01:36:24.184Z,75.68
2017-02-26T01:37:04.603Z,75.59
2017-02-26T01:37:45.057Z,75.68
2017-02-26T01:38:25.414Z,75.78
2017-02-26T01:39:05.842Z,76.06
2017-02-26T01:39:46.227Z,76.25
2017-02-26T01:40:26.674Z,76.25
2017-02-26T01:41:07.092Z,76.25
2017-02-26T01:41:47.517Z,76.54
2017-02-26T01:42:27.922Z,76.54
2017-02-26T01:43:08.383Z,76.54
2017-02-26T01:43:48.764Z,76.54
2017-02-26T01:44:29.172Z,76.44
2017-02-26T01:45:09.627Z,76.34
2017-02-26T01:45:49.985Z,76.54
2017-02-26T01:46:30.402Z,76.54
2017-02-26T01:47:10.790Z,76.34
2017-02-26T01:47:51.232Z,76.25
2017-02-26T01:48:31.693Z,76.34
2017-02-26T01:49:12.061Z,76.15
2017-02-26T01:49:52.503Z,76.25
2017-02-26T01:50:32.904Z,76.34
2017-02-26T01:51:13.277Z,76.15
2017-02-26T01:51:53.727Z,76.25
2017-02-26T01:52:34.113Z,76.15
2017-02-26T01:53:14.535Z,76.15
2017-02-26T01:53:54.966Z,76.06
2017-02-26T01:54:35.340Z,76.15
2017-02-26T01:55:15.787Z,76.54
2017-02-26T01:55:56.191Z,76.63
2017-02-26T01:56:36.570Z,76.82
2017-02-26T01:57:16.972Z,76.34
2017-02-26T01:57:57.401Z,76.82
2017-02-26T01:58:37.831Z,76.82
2017-02-26T01:59:18.236Z,76.44
2017-02-26T01:59:58.667Z,76.82
2017-02-26T02:00:39.081Z,76.34
2017-02-26T02:01:19.493Z,76.44
2017-02-26T02:01:59.900Z,76.54
2017-02-26T02:02:40.358Z,76.44
2017-02-26T02:03:20.746Z,76.82
2017-02-26T02:04:01.175Z,76.34
2017-02-26T02:04:41.631Z,76.54
2017-02-26T02:05:21.976Z,76.73
2017-02-26T02:06:02.392Z,76.82
2017-02-26T02:06:42.837Z,76.73
2017-02-26T02:07:23.341Z,76.82
2017-02-26T02:08:03.767Z,76.54
2017-02-26T02:08:44.129Z,76.63
2017-02-26T02:09:24.560Z,76.63
2017-02-26T02:10:04.921Z,77.01
2017-02-26T02:10:45.334Z,76.54
2017-02-26T02:11:25.698Z,76.54
2017-02-26T02:12:06.142Z,76.63
2017-02-26T02:12:46.549Z,76.63
2017-02-26T02:13:26.941Z,77.01
2017-02-26T02:14:07.372Z,77.01
2017-02-26T02:14:47.759Z,76.82
2017-02-26T02:15:28.209Z,77.01
2017-02-26T02:16:08.610Z,77.01
2017-02-26T02:16:49.044Z,76.82
2017-02-26T02:17:29.397Z,76.82
2017-02-26T02:18:09.883Z,77.01
2017-02-26T02:18:50.244Z,76.82
2017-02-26T02:19:30.667Z,76.73
2017-02-26T02:20:11.099Z,76.82
2017-02-26T02:20:51.495Z,76.92
2017-02-26T02:21:31.874Z,77.01
2017-02-26T02:22:12.321Z,77.01
2017-02-26T02:22:52.679Z,77.29
2017-02-26T02:23:33.082Z,77.11
2017-02-26T02:24:13.533Z,77.01
2017-02-26T02:24:53.984Z,76.73
2017-02-26T02:25:34.413Z,77.01
2017-02-26T02:26:14.787Z,77.11
2017-02-26T02:26:55.178Z,76.73
2017-02-26T02:27:35.598Z,76.63
2017-02-26T02:28:16.023Z,76.82
2017-02-26T02:28:56.443Z,77.01
2017-02-26T02:29:36.828Z,76.82
2017-02-26T02:30:17.260Z,76.82
2017-02-26T02:30:57.644Z,77.01
2017-02-26T02:31:38.092Z,77.01
2017-02-26T02:32:18.499Z,77.01
2017-02-26T02:32:58.919Z,77.2
2017-02-26T02:33:39.329Z,77.11
2017-02-26T02:34:19.729Z,77.39
2017-02-26T02:35:00.095Z,77.2
2017-02-26T02:35:40.516Z,77.29
2017-02-26T02:36:20.916Z,77.11
2017-02-26T02:37:01.327Z,77.2
2017-02-26T02:37:41.731Z,76.92
2017-02-26T02:38:22.130Z,77.11
2017-02-26T02:39:02.529Z,77.11
2017-02-26T02:39:42.928Z,77.2
2017-02-26T02:40:23.321Z,77.2
2017-02-26T02:41:03.767Z,77.29
2017-02-26T02:41:44.154Z,77.35
2017-02-26T02:42:24.562Z,77.35
2017-02-26T02:43:04.966Z,77.77
2017-02-26T02:43:45.413Z,77.77
2017-02-26T02:44:25.806Z,77.86
2017-02-26T02:45:06.198Z,77.35
2017-02-26T02:45:46.653Z,77.64
2017-02-26T02:46:27.063Z,77.45
2017-02-26T02:47:07.466Z,77.54
2017-02-26T02:47:47.846Z,77.67
2017-02-26T02:48:28.294Z,77.83
2017-02-26T02:49:08.727Z,77.64
2017-02-26T02:49:49.100Z,77.54
2017-02-26T02:50:29.521Z,77.67
2017-02-26T02:51:09.911Z,77.73
2017-02-26T02:51:50.322Z,77.54
2017-02-26T02:52:30.706Z,78.11
2017-02-26T02:53:11.162Z,78.11
2017-02-26T02:53:51.550Z,77.83
2017-02-26T02:54:31.896Z,78.15
2017-02-26T02:55:12.350Z,78.15
2017-02-26T02:55:52.753Z,77.92
2017-02-26T02:56:33.166Z,78.11
2017-02-26T02:57:13.587Z,77.73
2017-02-26T02:57:54.034Z,77.96
2017-02-26T02:58:34.467Z,77.86
2017-02-26T02:59:14.884Z,78.05
2017-02-26T02:59:55.286Z,78.11
2017-02-26T03:00:35.723Z,78.11
2017-02-26T03:01:16.083Z,77.86
2017-02-26T03:01:56.521Z,77.73
2017-02-26T03:02:36.914Z,77.86
2017-02-26T03:03:17.309Z,77.73
2017-02-26T03:03:57.721Z,78.05
2017-02-26T03:04:38.154Z,77.83
2017-02-26T03:05:18.503Z,78.05
2017-02-26T03:05:58.916Z,77.86
2017-02-26T03:06:39.350Z,77.96
2017-02-26T03:07:19.737Z,77.83
2017-02-26T03:08:00.164Z,78.49
2017-02-26T03:08:40.604Z,78.15
2017-02-26T03:09:21.071Z,78.34
2017-02-26T03:10:01.427Z,78.62
2017-02-26T03:10:41.833Z,78.53
2017-02-26T03:11:22.280Z,78.15
2017-02-26T03:12:02.671Z,78.24
2017-02-26T03:12:43.080Z,78.24
2017-02-26T03:13:23.509Z,78.05
2017-02-26T03:14:03.897Z,77.96
2017-02-26T03:14:44.320Z,77.96
2017-02-26T03:15:24.721Z,78.24
2017-02-26T03:16:05.115Z,78.62
2017-02-26T03:16:45.574Z,78.53
2017-02-26T03:17:25.964Z,78.34
2017-02-26T03:18:06.409Z,78.43
2017-02-26T03:18:46.896Z,78.05
2017-02-26T03:19:27.283Z,77.86
2017-02-26T03:20:07.649Z,77.86
2017-02-26T03:20:48.080Z,77.67
2017-02-26T03:21:28.477Z,77.96
2017-02-26T03:22:08.889Z,77.86
2017-02-26T03:22:49.259Z,77.86
2017-02-26T03:23:29.688Z,77.86
2017-02-26T03:24:10.068Z,77.96
2017-02-26T03:24:50.507Z,78.15
2017-02-26T03:25:30.917Z,77.86
2017-02-26T03:26:11.332Z,77.67
2017-02-26T03:26:51.696Z,77.67
2017-02-26T03:27:32.174Z,77.39
2017-02-26T03:28:12.533Z,77.96
2017-02-26T03:28:52.953Z,77.77
2017-02-26T03:29:33.359Z,77.58
2017-02-26T03:30:13.792Z,77.48
2017-02-26T03:30:54.201Z,77.77
2017-02-26T03:31:34.574Z,77.77
2017-02-26T03:32:15.053Z,77.58
2017-02-26T03:32:55.487Z,77.77
2017-02-26T03:33:35.884Z,77.71
2017-02-26T03:34:16.229Z,77.52
2017-02-26T03:34:56.626Z,77.67
2017-02-26T03:35:37.081Z,77.86
2017-02-26T03:36:17.501Z,77.39
2017-02-26T03:36:57.863Z,77.33
2017-02-26T03:37:38.268Z,77.05
2017-02-26T03:38:18.729Z,77.24
2017-02-26T03:38:59.158Z,77.33
2017-02-26T03:39:39.555Z,77.39
2017-02-26T03:40:20.003Z,77.14
2017-02-26T03:41:00.401Z,77.14
2017-02-26T03:41:40.828Z,77.24
2017-02-26T03:42:21.272Z,77.33
2017-02-26T03:43:01.652Z,77.24
2017-02-26T03:43:42.036Z,77.24
2017-02-26T03:44:22.415Z,77.24
2017-02-26T03:45:02.837Z,77.05
2017-02-26T03:45:43.278Z,76.95
2017-02-26T03:46:23.727Z,77.33
2017-02-26T03:47:04.107Z,77.05
2017-02-26T03:47:44.518Z,77.24
2017-02-26T03:48:24.952Z,77.14
2017-02-26T03:49:05.372Z,77.14
2017-02-26T03:49:45.729Z,77.05
2017-02-26T03:50:26.165Z,77.05
2017-02-26T03:51:06.553Z,77.14
2017-02-26T03:51:46.967Z,77.24
2017-02-26T03:52:27.416Z,77.14
2017-02-26T03:53:07.789Z,77.05
2017-02-26T03:53:48.239Z,77.05
2017-02-26T03:54:28.585Z,76.95
2017-02-26T03:55:09.020Z,77.05
2017-02-26T03:55:49.403Z,76.86
2017-02-26T03:56:29.853Z,77.33
2017-02-26T03:57:10.255Z,77.33
2017-02-26T03:57:50.638Z,77.14
2017-02-26T03:58:31.064Z,77.24
2017-02-26T03:59:11.471Z,77.33
2017-02-26T03:59:51.858Z,76.95
2017-02-26T04:00:32.283Z,77.43
2017-02-26T04:01:12.711Z,77.24
2017-02-26T04:01:53.119Z,77.43
2017-02-26T04:02:33.522Z,77.33
2017-02-26T04:03:13.937Z,77.2
2017-02-26T04:03:54.333Z,77.24
2017-02-26T04:04:34.769Z,77.01
2017-02-26T04:05:15.252Z,77.81
2017-02-26T04:05:55.699Z,77.86
2017-02-26T04:06:36.159Z,77.39
2017-02-26T04:07:16.537Z,77.58
2017-02-26T04:07:57.160Z,77.58
2017-02-26T04:08:37.588Z,77.77
2017-02-26T04:09:17.971Z,77.48
2017-02-26T04:09:58.414Z,77.67
2017-02-26T04:10:38.830Z,77.29
2017-02-26T04:11:19.236Z,77.58
2017-02-26T04:11:59.618Z,77.67
2017-02-26T04:12:40.086Z,77.48
2017-02-26T04:13:20.459Z,77.67
2017-02-26T04:14:00.845Z,77.67
2017-02-26T04:14:41.323Z,77.58
2017-02-26T04:15:21.680Z,77.48
2017-02-26T04:16:02.084Z,77.67
2017-02-26T04:16:42.503Z,77.52
2017-02-26T04:17:22.927Z,77.67
2017-02-26T04:18:03.349Z,77.52
2017-02-26T04:18:43.755Z,77.58
2017-02-26T04:19:24.162Z,77.71
2017-02-26T04:20:04.610Z,77.52
2017-02-26T04:20:45.028Z,77.71
2017-02-26T04:21:25.421Z,77.52
2017-02-26T04:22:05.781Z,77.9
2017-02-26T04:22:46.172Z,77.9
2017-02-26T04:23:26.637Z,77.71
2017-02-26T04:24:07.072Z,77.43
2017-02-26T04:24:47.425Z,77.9
2017-02-26T04:25:27.896Z,77.81
2017-02-26T04:26:08.354Z,77.81
2017-02-26T04:26:48.751Z,77.9
2017-02-26T04:27:29.230Z,77.9
2017-02-26T04:28:09.582Z,77.81
2017-02-26T04:28:49.942Z,77.33
2017-02-26T04:29:30.418Z,77.71
2017-02-26T04:30:10.791Z,77.81
2017-02-26T04:30:51.183Z,77.81
2017-02-26T04:31:31.588Z,77.81
2017-02-26T04:32:12.043Z,77.9
2017-02-26T04:32:52.425Z,78
2017-02-26T04:33:32.825Z,77.33
2017-02-26T04:34:13.240Z,77.33
2017-02-26T04:34:53.613Z,77.9
2017-02-26T04:35:34.062Z,77.62
2017-02-26T04:36:14.443Z,77.62
2017-02-26T04:36:54.840Z,77.52
2017-02-26T04:37:35.244Z,77.71
2017-02-26T04:38:15.661Z,77.62
2017-02-26T04:38:56.037Z,77.52
2017-02-26T04:39:36.451Z,77.52
2017-02-26T04:40:16.841Z,77.52
2017-02-26T04:40:57.255Z,77.52
2017-02-26T04:41:37.616Z,77.71
2017-02-26T04:42:18.050Z,77.71
2017-02-26T04:42:58.514Z,77.62
2017-02-26T04:43:38.857Z,77.62
2017-02-26T04:44:19.290Z,77.43
2017-02-26T04:44:59.662Z,77.52
2017-02-26T04:45:40.066Z,77.71
2017-02-26T04:46:20.435Z,77.71
2017-02-26T04:47:00.898Z,77.52
2017-02-26T04:47:41.390Z,77.43
2017-02-26T04:48:21.724Z,77.81
2017-02-26T04:49:02.138Z,77.81
2017-02-26T04:49:42.560Z,77.81
2017-02-26T04:50:22.985Z,77.43
2017-02-26T04:51:03.388Z,77.71
2017-02-26T04:51:43.801Z,77.81
2017-02-26T04:52:24.263Z,77.71
2017-02-26T04:53:04.663Z,77.81
2017-02-26T04:53:45.066Z,77.43
2017-02-26T04:54:25.525Z,77.81
2017-02-26T04:55:05.947Z,77.71
2017-02-26T04:55:46.253Z,77.71
2017-02-26T04:56:26.710Z,77.71
2017-02-26T04:57:07.088Z,77.81
2017-02-26T04:57:47.541Z,77.9
2017-02-26T04:58:27.967Z,77.81
2017-02-26T04:59:08.397Z,77.71
2017-02-26T04:59:48.785Z,77.14
2017-02-26T05:00:29.240Z,77.24
2017-02-26T05:01:09.707Z,76.95
2017-02-26T05:01:50.119Z,77.14
2017-02-26T05:02:30.483Z,77.24
2017-02-26T05:03:10.935Z,77.14
2017-02-26T05:03:51.378Z,77.14
2017-02-26T05:04:31.812Z,77.05
2017-02-26T05:05:12.257Z,77.05
2017-02-26T05:05:52.723Z,77.05
2017-02-26T05:06:33.171Z,77.14
2017-02-26T05:07:13.520Z,77.24
2017-02-26T05:07:54.043Z,77.24
2017-02-26T05:08:34.501Z,77.33
2017-02-26T05:09:14.875Z,77.05
2017-02-26T05:09:55.303Z,77.43
2017-02-26T05:10:35.704Z,77.33
2017-02-26T05:11:16.115Z,77.33
2017-02-26T05:11:56.547Z,77.24
2017-02-26T05:12:37.029Z,77.24
2017-02-26T05:13:17.439Z,76.57
2017-02-26T05:13:57.836Z,77.05
2017-02-26T05:14:38.320Z,77.05
2017-02-26T05:15:18.641Z,76.86
2017-02-26T05:15:59.048Z,76.76
2017-02-26T05:16:39.486Z,76.76
2017-02-26T05:17:19.947Z,76.76
2017-02-26T05:18:00.428Z,76.76
2017-02-26T05:18:40.825Z,76.76
2017-02-26T05:19:21.257Z,76.67
2017-02-26T05:20:01.609Z,76.86
2017-02-26T05:20:42.051Z,76.57
2017-02-26T05:21:22.421Z,76.48
2017-02-26T05:22:02.854Z,76.48
2017-02-26T05:22:43.255Z,76.2
2017-02-26T05:23:23.657Z,76.2
2017-02-26T05:24:04.071Z,76.1
2017-02-26T05:24:44.514Z,76.2
2017-02-26T05:25:24.958Z,76.1
2017-02-26T05:26:05.351Z,76.39
2017-02-26T05:26:45.768Z,76.48
2017-02-26T05:27:26.229Z,76.1
2017-02-26T05:28:06.704Z,76.2
2017-02-26T05:28:47.176Z,76.2
2017-02-26T05:29:27.565Z,76.1
2017-02-26T05:30:07.940Z,76.2
2017-02-26T05:30:48.390Z,76.29
2017-02-26T05:31:28.824Z,76.2
2017-02-26T05:32:09.251Z,76.29
2017-02-26T05:32:49.625Z,76.01
2017-02-26T05:33:30.046Z,76.2
2017-02-26T05:34:10.417Z,76.29
2017-02-26T05:34:50.930Z,76.2
2017-02-26T05:35:31.252Z,76.2
2017-02-26T05:36:11.651Z,76.29
2017-02-26T05:36:52.070Z,76.2
2017-02-26T05:37:32.482Z,76.1
2017-02-26T05:38:12.928Z,76.2
2017-02-26T05:38:53.349Z,76.2
2017-02-26T05:39:33.729Z,76.1
2017-02-26T05:40:14.132Z,76.1
2017-02-26T05:40:54.508Z,76.1
2017-02-26T05:41:34.915Z,76.1
2017-02-26T05:42:15.282Z,76.29
2017-02-26T05:42:55.750Z,76.1
2017-02-26T05:43:36.121Z,76.29
2017-02-26T05:44:16.537Z,76.29
2017-02-26T05:44:56.961Z,76.2
2017-02-26T05:45:37.392Z,76.29
2017-02-26T05:46:17.833Z,76.2
2017-02-26T05:46:58.251Z,76.2
2017-02-26T05:47:38.652Z,76.2
2017-02-26T05:48:18.999Z,76.29
2017-02-26T05:48:59.411Z,76.29
2017-02-26T05:49:39.836Z,76.39
2017-02-26T05:50:20.264Z,76.39
2017-02-26T05:51:00.713Z,76.39
2017-02-26T05:51:41.091Z,76.39
2017-02-26T05:52:21.470Z,76.39
2017-02-26T05:53:01.918Z,76.39
2017-02-26T05:53:42.332Z,76.39
2017-02-26T05:54:22.772Z,76.29
2017-02-26T05:55:03.287Z,76.39
2017-02-26T05:55:43.622Z,76.48
2017-02-26T05:56:24.023Z,76.29
2017-02-26T05:57:04.439Z,76.29
2017-02-26T05:57:44.811Z,76.39
2017-02-26T05:58:25.235Z,76.39
2017-02-26T05:59:05.634Z,75.91
2017-02-26T05:59:46.087Z,76.01
2017-02-26T06:00:26.476Z,76.32
2017-02-26T06:01:06.896Z,76.2
2017-02-26T06:01:47.282Z,76.1
2017-02-26T06:02:27.681Z,76.1
2017-02-26T06:03:08.113Z,75.85
2017-02-26T06:03:48.492Z,75.62
2017-02-26T06:04:28.919Z,75.67
2017-02-26T06:05:09.300Z,75.85
2017-02-26T06:05:49.741Z,75.76
2017-02-26T06:06:30.108Z,75.72
2017-02-26T06:07:10.567Z,75.81
2017-02-26T06:07:50.963Z,75.81
2017-02-26T06:08:31.359Z,75.72
2017-02-26T06:09:11.818Z,75.76
2017-02-26T06:09:52.179Z,75.76
2017-02-26T06:10:32.638Z,75.72
2017-02-26T06:11:13.001Z,75.95
2017-02-26T06:11:53.360Z,75.85
2017-02-26T06:12:33.774Z,76.04
2017-02-26T06:13:14.183Z,75.76
2017-02-26T06:13:54.602Z,75.85
2017-02-26T06:14:34.980Z,75.67
2017-02-26T06:15:15.420Z,75.95
2017-02-26T06:15:55.810Z,75.67
2017-02-26T06:16:36.289Z,75.85
2017-02-26T06:17:16.608Z,76.14
2017-02-26T06:17:57.040Z,75.76
2017-02-26T06:18:37.427Z,75.76
2017-02-26T06:19:17.818Z,76.14
2017-02-26T06:19:58.247Z,75.57
2017-02-26T06:20:38.665Z,75.76
2017-02-26T06:21:19.046Z,75.47
2017-02-26T06:21:59.426Z,75.38
2017-02-26T06:22:39.809Z,75.28
2017-02-26T06:23:20.254Z,75.28
2017-02-26T06:24:00.677Z,75.38
2017-02-26T06:24:41.120Z,75.38
2017-02-26T06:25:21.554Z,75.47
2017-02-26T06:26:01.925Z,75.57
2017-02-26T06:26:42.353Z,74.71
2017-02-26T06:27:22.733Z,74.71
2017-02-26T06:28:03.156Z,74.71
2017-02-26T06:28:43.584Z,74.81
2017-02-26T06:29:23.983Z,75
2017-02-26T06:30:04.395Z,75.09
2017-02-26T06:30:44.825Z,75
2017-02-26T06:31:25.201Z,74.9
2017-02-26T06:32:05.720Z,74.9
2017-02-26T06:32:46.002Z,75
2017-02-26T06:33:26.486Z,74.9
2017-02-26T06:34:06.923Z,74.81
2017-02-26T06:34:47.302Z,75
2017-02-26T06:35:27.728Z,75.09
2017-02-26T06:36:08.110Z,75.19
2017-02-26T06:36:48.494Z,75.09
2017-02-26T06:37:28.992Z,75
2017-02-26T06:38:09.380Z,75.09
2017-02-26T06:38:49.720Z,74.9
2017-02-26T06:39:30.200Z,75.09
2017-02-26T06:40:10.959Z,74.9
2017-02-26T06:40:51.534Z,75.19
2017-02-26T06:41:31.989Z,74.9
2017-02-26T06:42:12.403Z,74.9
2017-02-26T06:42:52.820Z,74.81
2017-02-26T06:43:33.387Z,74.9
2017-02-26T06:44:13.779Z,75
2017-02-26T06:44:54.230Z,74.62
2017-02-26T06:45:34.688Z,74.81
2017-02-26T06:46:15.087Z,74.9
2017-02-26T06:46:55.531Z,74.9
2017-02-26T06:47:35.935Z,74.9
2017-02-26T06:48:16.326Z,74.9
2017-02-26T06:48:56.792Z,74.24
2017-02-26T06:49:37.199Z,74.33
2017-02-26T06:50:17.637Z,74.33
2017-02-26T06:50:58.097Z,74.33
2017-02-26T06:51:38.516Z,74.43
2017-02-26T06:52:18.957Z,74.24
2017-02-26T06:52:59.361Z,74.33
2017-02-26T06:53:39.732Z,74.33
2017-02-26T06:54:20.143Z,74.43
2017-02-26T06:55:00.583Z,74.33
2017-02-26T06:55:41.030Z,74.62
2017-02-26T06:56:21.467Z,74.15
2017-02-26T06:57:01.913Z,74.9
2017-02-26T06:57:42.283Z,74.15
2017-02-26T06:58:22.738Z,74.24
2017-02-26T06:59:03.116Z,74.52
2017-02-26T06:59:43.515Z,74.24
2017-02-26T07:00:23.969Z,74.33
2017-02-26T07:01:04.380Z,74.71
2017-02-26T07:01:44.820Z,74.71
2017-02-26T07:02:25.255Z,74.52
2017-02-26T07:03:05.665Z,75
2017-02-26T07:03:46.074Z,74.62
2017-02-26T07:04:26.477Z,74.52
2017-02-26T07:05:06.908Z,74.05
2017-02-26T07:05:47.358Z,74.05
2017-02-26T07:06:27.864Z,74.05
2017-02-26T07:07:08.346Z,74.24
2017-02-26T07:07:48.660Z,74.15
2017-02-26T07:08:29.027Z,74.24
2017-02-26T07:09:09.453Z,74.15
2017-02-26T07:09:49.880Z,74.24
2017-02-26T07:10:30.280Z,74.33
2017-02-26T07:11:10.717Z,74.24
2017-02-26T07:11:51.124Z,74.24
2017-02-26T07:12:31.519Z,74.05
2017-02-26T07:13:11.887Z,74.15
2017-02-26T07:13:52.314Z,73.96
2017-02-26T07:14:33.021Z,74.15
2017-02-26T07:15:13.318Z,73.96
2017-02-26T07:15:53.684Z,74.43
2017-02-26T07:16:34.108Z,73.86
2017-02-26T07:17:14.518Z,74.24
2017-02-26T07:17:54.950Z,74.33
2017-02-26T07:18:35.350Z,73.96
2017-02-26T07:19:15.767Z,73.86
2017-02-26T07:19:56.298Z,74.05
2017-02-26T07:20:36.632Z,73.96
2017-02-26T07:21:16.986Z,73.86
2017-02-26T07:21:57.432Z,74.24
2017-02-26T07:22:37.837Z,74.15
2017-02-26T07:23:18.353Z,73.86
2017-02-26T07:23:58.723Z,74.15
2017-02-26T07:24:39.147Z,74.05
2017-02-26T07:25:19.564Z,74.15
2017-02-26T07:25:59.940Z,74.05
2017-02-26T07:26:40.338Z,74.24
2017-02-26T07:27:20.771Z,73.76
2017-02-26T07:28:01.194Z,73.76
2017-02-26T07:28:41.602Z,74.15
2017-02-26T07:29:21.990Z,73.76
2017-02-26T07:30:02.432Z,74.15
2017-02-26T07:30:42.840Z,74.24
2017-02-26T07:31:23.232Z,74.24
2017-02-26T07:32:03.692Z,74.24
2017-02-26T07:32:44.066Z,74.24
2017-02-26T07:33:24.461Z,74.27
2017-02-26T07:34:04.888Z,73.71
2017-02-26T07:34:45.313Z,73.61
2017-02-26T07:35:25.701Z,73.71
2017-02-26T07:36:06.099Z,73.71
2017-02-26T07:36:46.512Z,73.52
2017-02-26T07:37:26.939Z,73.71
2017-02-26T07:38:07.309Z,73.61
2017-02-26T07:38:47.791Z,73.71
2017-02-26T07:39:28.178Z,73.61
2017-02-26T07:40:08.555Z,73.71
2017-02-26T07:40:48.903Z,73.14
2017-02-26T07:41:29.346Z,73.14
2017-02-26T07:42:09.770Z,73.8
2017-02-26T07:42:50.334Z,73.04
2017-02-26T07:43:30.756Z,73.04
2017-02-26T07:44:11.113Z,72.95
2017-02-26T07:44:51.504Z,73.23
2017-02-26T07:45:31.911Z,73.04
2017-02-26T07:46:12.308Z,73.04
2017-02-26T07:46:52.868Z,73.14
2017-02-26T07:47:33.266Z,72.95
2017-02-26T07:48:13.532Z,73.04
2017-02-26T07:48:53.997Z,73.14
2017-02-26T07:49:34.493Z,72.95
2017-02-26T07:50:15.023Z,72.95
2017-02-26T07:50:55.552Z,73.04
2017-02-26T07:51:35.847Z,73.14
2017-02-26T07:52:16.653Z,73.04
2017-02-26T07:52:56.940Z,73.04
2017-02-26T07:53:37.316Z,73.14
2017-02-26T07:54:17.782Z,73.23
2017-02-26T07:54:58.221Z,72.95
2017-02-26T07:55:38.728Z,73.14
2017-02-26T07:56:19.083Z,73.14
2017-02-26T07:57:00.669Z,72.95
2017-02-26T07:57:40.042Z,72.95
2017-02-26T07:58:20.451Z,73.23
2017-02-26T07:59:00.755Z,72.95
2017-02-26T07:59:41.153Z,73.04
2017-02-26T08:00:21.705Z,72.85
2017-02-26T08:01:02.473Z,72.66
2017-02-26T08:01:43.012Z,72.66
2017-02-26T08:02:23.476Z,72.38
2017-02-26T08:03:03.870Z,72.75
2017-02-26T08:03:44.442Z,72.75
2017-02-26T08:04:24.885Z,72.56
2017-02-26T08:05:05.271Z,72.75
2017-02-26T08:05:45.674Z,72.56
2017-02-26T08:06:26.119Z,72.47
2017-02-26T08:07:06.587Z,72.56
2017-02-26T08:07:47.215Z,72.38
2017-02-26T08:08:27.488Z,72.19
2017-02-26T08:09:07.837Z,72.09
2017-02-26T08:09:48.270Z,72.09
2017-02-26T08:10:28.723Z,72.09
2017-02-26T08:11:09.184Z,72.09
2017-02-26T08:11:49.534Z,72.09
2017-02-26T08:12:29.963Z,72.09
2017-02-26T08:13:10.456Z,72.09
2017-02-26T08:13:50.817Z,72.09
2017-02-26T08:14:31.230Z,72.28
2017-02-26T08:15:11.622Z,72.38
2017-02-26T08:15:52.094Z,72.28
2017-02-26T08:16:32.800Z,72.38
2017-02-26T08:17:13.220Z,71.71
2017-02-26T08:17:53.644Z,71.9
2017-02-26T08:18:34.147Z,71.81
2017-02-26T08:19:14.445Z,71.81
2017-02-26T08:19:54.866Z,71.62
2017-02-26T08:20:35.274Z,71.81
2017-02-26T08:21:15.765Z,71.71
2017-02-26T08:21:56.202Z,71.33
2017-02-26T08:22:36.587Z,71.33
2017-02-26T08:23:16.958Z,71.71
2017-02-26T08:23:57.564Z,71.43
2017-02-26T08:24:38.015Z,71.52
2017-02-26T08:25:18.384Z,71.71
2017-02-26T08:25:58.790Z,71.71
2017-02-26T08:26:39.201Z,71.81
2017-02-26T08:27:19.719Z,71.81
2017-02-26T08:28:00.131Z,71.81
2017-02-26T08:28:40.512Z,71.81
2017-02-26T08:29:21.645Z,71.71
2017-02-26T08:30:02.063Z,72
2017-02-26T08:30:42.486Z,71.52
2017-02-26T08:31:22.952Z,71.71
2017-02-26T08:32:03.497Z,71.52
2017-02-26T08:32:44.125Z,71.71
2017-02-26T08:33:24.595Z,71.81
2017-02-26T08:34:05.052Z,71.81
2017-02-26T08:34:45.510Z,71.52
2017-02-26T08:35:25.879Z,71.43
2017-02-26T08:36:06.475Z,71.62
2017-02-26T08:36:46.887Z,72.09
2017-02-26T08:37:27.279Z,71.9
2017-02-26T08:38:07.876Z,71.62
2017-02-26T08:38:48.338Z,71.84
2017-02-26T08:39:28.758Z,71.66
2017-02-26T08:40:09.200Z,71.08
2017-02-26T08:40:49.583Z,70.89
2017-02-26T08:41:29.953Z,71.08
2017-02-26T08:42:10.380Z,70.79